sensor_id;sensor_type;location;lat;lon;timestamp;temperature;humidity
4759;DHT22;2393;50.560;12.636;2023-06-19T00:02:24;13.70;99.90
4759;DHT22;2393;50.560;12.636;2023-06-19T00:04:53;13.70;99.90
4759;DHT22;2393;50.560;12.636;2023-06-19T00:07:21;13.70;99.90
4759;DHT22;2393;50.560;12.636;2023-06-19T00:09:49;13.70;99.90
4759;DHT22;2393;50.560;12.636;2023-06-19T00:12:17;13.70;99.90
4759;DHT22;2393;50.560;12.636;2023-06-19T00:14:47;13.80;99.90
4759;DHT22;2393;50.560;12.636;2023-06-19T00:17:15;13.80;99.90
4759;DHT22;2393;50.560;12.636;2023-06-19T00:19:44;13.90;99.90
4759;DHT22;2393;50.560;12.636;2023-06-19T00:22:13;14.00;99.90
4759;DHT22;2393;50.560;12.636;2023-06-19T00:24:42;14.00;99.90
4759;DHT22;2393;50.560;12.636;2023-06-19T00:27:10;14.00;99.90
4759;DHT22;2393;50.560;12.636;2023-06-19T00:29:38;14.10;99.90
4759;DHT22;2393;50.560;12.636;2023-06-19T00:32:08;14.20;99.90
4759;DHT22;2393;50.560;12.636;2023-06-19T00:34:37;14.30;99.90
4759;DHT22;2393;50.560;12.636;2023-06-19T00:37:05;14.30;99.90
4759;DHT22;2393;50.560;12.636;2023-06-19T00:39:36;14.40;99.90
4759;DHT22;2393;50.560;12.636;2023-06-19T00:42:05;14.40;99.90
4759;DHT22;2393;50.560;12.636;2023-06-19T00:44:33;14.60;99.90
4759;DHT22;2393;50.560;12.636;2023-06-19T00:47:03;14.60;99.90
4759;DHT22;2393;50.560;12.636;2023-06-19T00:49:33;14.70;99.90
4759;DHT22;2393;50.560;12.636;2023-06-19T00:52:02;14.80;99.90
4759;DHT22;2393;50.560;12.636;2023-06-19T00:54:30;14.90;99.90
4759;DHT22;2393;50.560;12.636;2023-06-19T00:57:00;14.90;99.90
4759;DHT22;2393;50.560;12.636;2023-06-19T00:59:29;15.00;99.90
4759;DHT22;2393;50.560;12.636;2023-06-19T01:01:57;15.10;99.90
4759;DHT22;2393;50.560;12.636;2023-06-19T01:04:26;15.10;99.90
4759;DHT22;2393;50.560;12.636;2023-06-19T01:07:02;15.20;99.90
4759;DHT22;2393;50.560;12.636;2023-06-19T01:09:35;15.20;99.90
4759;DHT22;2393;50.560;12.636;2023-06-19T01:12:09;15.30;99.90
4759;DHT22;2393;50.560;12.636;2023-06-19T01:14:48;15.30;99.90
4759;DHT22;2393;50.560;12.636;2023-06-19T01:17:18;15.40;99.90
4759;DHT22;2393;50.560;12.636;2023-06-19T01:19:46;15.40;99.90
4759;DHT22;2393;50.560;12.636;2023-06-19T01:22:25;15.40;99.90
4759;DHT22;2393;50.560;12.636;2023-06-19T01:24:53;15.40;99.90
4759;DHT22;2393;50.560;12.636;2023-06-19T01:27:21;15.40;99.90
4759;DHT22;2393;50.560;12.636;2023-06-19T01:29:49;15.40;99.90
4759;DHT22;2393;50.560;12.636;2023-06-19T01:32:20;15.40;99.90
4759;DHT22;2393;50.560;12.636;2023-06-19T01:34:51;15.40;99.90
4759;DHT22;2393;50.560;12.636;2023-06-19T01:37:24;15.50;99.90
4759;DHT22;2393;50.560;12.636;2023-06-19T01:39:55;15.50;99.90
4759;DHT22;2393;50.560;12.636;2023-06-19T01:42:25;15.60;99.90
4759;DHT22;2393;50.560;12.636;2023-06-19T01:44:53;15.70;99.90
4759;DHT22;2393;50.560;12.636;2023-06-19T01:47:21;15.70;99.90
4759;DHT22;2393;50.560;12.636;2023-06-19T01:49:50;15.80;99.90
4759;DHT22;2393;50.560;12.636;2023-06-19T01:52:18;15.80;99.90
4759;DHT22;2393;50.560;12.636;2023-06-19T01:54:47;15.80;99.90
4759;DHT22;2393;50.560;12.636;2023-06-19T01:57:15;15.90;99.90
4759;DHT22;2393;50.560;12.636;2023-06-19T01:59:44;15.90;99.90
4759;DHT22;2393;50.560;12.636;2023-06-19T02:02:12;16.00;99.90
4759;DHT22;2393;50.560;12.636;2023-06-19T02:04:40;16.00;99.90
4759;DHT22;2393;50.560;12.636;2023-06-19T02:07:08;16.00;99.90
4759;DHT22;2393;50.560;12.636;2023-06-19T02:09:38;16.10;99.90
4759;DHT22;2393;50.560;12.636;2023-06-19T02:12:08;16.10;99.90
4759;DHT22;2393;50.560;12.636;2023-06-19T02:14:36;16.10;99.90
4759;DHT22;2393;50.560;12.636;2023-06-19T02:17:04;16.00;99.90
4759;DHT22;2393;50.560;12.636;2023-06-19T02:19:34;16.10;99.90
4759;DHT22;2393;50.560;12.636;2023-06-19T02:22:03;16.10;99.90
4759;DHT22;2393;50.560;12.636;2023-06-19T02:24:31;16.10;99.90
4759;DHT22;2393;50.560;12.636;2023-06-19T02:26:59;16.10;99.90
4759;DHT22;2393;50.560;12.636;2023-06-19T02:29:30;16.10;99.90
4759;DHT22;2393;50.560;12.636;2023-06-19T02:32:02;16.10;99.90
4759;DHT22;2393;50.560;12.636;2023-06-19T02:34:30;16.10;99.90
4759;DHT22;2393;50.560;12.636;2023-06-19T02:36:58;16.10;99.90
4759;DHT22;2393;50.560;12.636;2023-06-19T02:39:26;16.00;99.90
4759;DHT22;2393;50.560;12.636;2023-06-19T02:41:55;16.00;99.90
4759;DHT22;2393;50.560;12.636;2023-06-19T02:44:23;16.00;99.90
4759;DHT22;2393;50.560;12.636;2023-06-19T02:46:52;15.90;99.90
4759;DHT22;2393;50.560;12.636;2023-06-19T02:49:20;15.90;99.90
4759;DHT22;2393;50.560;12.636;2023-06-19T02:51:48;15.90;99.90
4759;DHT22;2393;50.560;12.636;2023-06-19T02:54:16;15.90;99.90
4759;DHT22;2393;50.560;12.636;2023-06-19T02:56:44;15.90;99.90
4759;DHT22;2393;50.560;12.636;2023-06-19T02:59:16;15.90;99.90
4759;DHT22;2393;50.560;12.636;2023-06-19T03:01:44;15.90;99.90
4759;DHT22;2393;50.560;12.636;2023-06-19T03:04:14;15.90;99.90
4759;DHT22;2393;50.560;12.636;2023-06-19T03:06:42;15.90;99.90
4759;DHT22;2393;50.560;12.636;2023-06-19T03:09:11;15.90;99.90
4759;DHT22;2393;50.560;12.636;2023-06-19T03:11:39;15.90;99.90
4759;DHT22;2393;50.560;12.636;2023-06-19T03:14:08;15.90;99.90
4759;DHT22;2393;50.560;12.636;2023-06-19T03:16:37;15.90;99.90
4759;DHT22;2393;50.560;12.636;2023-06-19T03:19:08;15.90;99.90
4759;DHT22;2393;50.560;12.636;2023-06-19T03:21:38;15.90;99.90
4759;DHT22;2393;50.560;12.636;2023-06-19T03:24:06;15.80;99.90
4759;DHT22;2393;50.560;12.636;2023-06-19T03:26:36;15.80;99.90
4759;DHT22;2393;50.560;12.636;2023-06-19T03:29:04;15.80;99.90
4759;DHT22;2393;50.560;12.636;2023-06-19T03:31:46;15.80;99.90
4759;DHT22;2393;50.560;12.636;2023-06-19T03:34:15;15.80;99.90
4759;DHT22;2393;50.560;12.636;2023-06-19T03:36:44;15.80;99.90
4759;DHT22;2393;50.560;12.636;2023-06-19T03:39:13;15.80;99.90
4759;DHT22;2393;50.560;12.636;2023-06-19T03:41:42;15.80;99.90
4759;DHT22;2393;50.560;12.636;2023-06-19T03:44:10;15.80;99.90
4759;DHT22;2393;50.560;12.636;2023-06-19T03:46:38;15.80;99.90
4759;DHT22;2393;50.560;12.636;2023-06-19T03:49:06;15.80;99.90
4759;DHT22;2393;50.560;12.636;2023-06-19T03:51:36;15.80;99.90
4759;DHT22;2393;50.560;12.636;2023-06-19T03:54:05;15.80;99.90
4759;DHT22;2393;50.560;12.636;2023-06-19T03:56:33;15.90;99.90
4759;DHT22;2393;50.560;12.636;2023-06-19T03:59:01;15.90;99.90
4759;DHT22;2393;50.560;12.636;2023-06-19T04:01:30;16.00;99.90
4759;DHT22;2393;50.560;12.636;2023-06-19T04:03:58;16.00;99.90
4759;DHT22;2393;50.560;12.636;2023-06-19T04:06:27;16.10;99.90
4759;DHT22;2393;50.560;12.636;2023-06-19T04:08:55;16.10;99.90
4759;DHT22;2393;50.560;12.636;2023-06-19T04:11:24;16.20;99.90
4759;DHT22;2393;50.560;12.636;2023-06-19T04:13:53;16.20;99.90
4759;DHT22;2393;50.560;12.636;2023-06-19T04:16:21;16.30;99.90
4759;DHT22;2393;50.560;12.636;2023-06-19T04:18:49;16.30;99.90
4759;DHT22;2393;50.560;12.636;2023-06-19T04:21:17;16.40;99.90
4759;DHT22;2393;50.560;12.636;2023-06-19T04:23:45;16.50;99.90
4759;DHT22;2393;50.560;12.636;2023-06-19T04:26:14;16.60;99.90
4759;DHT22;2393;50.560;12.636;2023-06-19T04:28:43;16.80;99.90
4759;DHT22;2393;50.560;12.636;2023-06-19T04:31:11;17.00;99.90
4759;DHT22;2393;50.560;12.636;2023-06-19T04:33:39;17.10;99.90
4759;DHT22;2393;50.560;12.636;2023-06-19T04:36:08;17.20;99.90
4759;DHT22;2393;50.560;12.636;2023-06-19T04:38:36;17.30;99.90
4759;DHT22;2393;50.560;12.636;2023-06-19T04:41:04;17.40;99.90
4759;DHT22;2393;50.560;12.636;2023-06-19T04:43:33;17.50;99.90
4759;DHT22;2393;50.560;12.636;2023-06-19T04:46:02;17.60;99.90
4759;DHT22;2393;50.560;12.636;2023-06-19T04:48:31;17.70;99.90
4759;DHT22;2393;50.560;12.636;2023-06-19T04:50:59;17.70;99.90
4759;DHT22;2393;50.560;12.636;2023-06-19T04:53:28;17.80;99.90
4759;DHT22;2393;50.560;12.636;2023-06-19T04:55:56;17.80;99.90
4759;DHT22;2393;50.560;12.636;2023-06-19T04:58:27;17.90;99.90
4759;DHT22;2393;50.560;12.636;2023-06-19T05:00:55;17.90;99.90
4759;DHT22;2393;50.560;12.636;2023-06-19T05:03:24;18.00;99.90
4759;DHT22;2393;50.560;12.636;2023-06-19T05:05:52;18.00;99.90
4759;DHT22;2393;50.560;12.636;2023-06-19T05:08:20;18.10;99.90
4759;DHT22;2393;50.560;12.636;2023-06-19T05:10:48;18.20;99.90
4759;DHT22;2393;50.560;12.636;2023-06-19T05:13:16;18.30;99.90
4759;DHT22;2393;50.560;12.636;2023-06-19T05:15:45;18.30;99.90
4759;DHT22;2393;50.560;12.636;2023-06-19T05:18:13;18.40;99.90
4759;DHT22;2393;50.560;12.636;2023-06-19T05:20:43;18.60;99.90
4759;DHT22;2393;50.560;12.636;2023-06-19T05:23:12;18.70;99.90
4759;DHT22;2393;50.560;12.636;2023-06-19T05:25:40;18.80;99.90
4759;DHT22;2393;50.560;12.636;2023-06-19T05:28:09;18.90;99.90
4759;DHT22;2393;50.560;12.636;2023-06-19T05:30:37;19.00;99.90
4759;DHT22;2393;50.560;12.636;2023-06-19T05:33:05;19.10;99.90
4759;DHT22;2393;50.560;12.636;2023-06-19T05:35:33;19.20;99.90
4759;DHT22;2393;50.560;12.636;2023-06-19T05:38:03;19.20;99.90
4759;DHT22;2393;50.560;12.636;2023-06-19T05:40:32;19.30;99.90
4759;DHT22;2393;50.560;12.636;2023-06-19T05:43:00;19.30;99.90
4759;DHT22;2393;50.560;12.636;2023-06-19T05:45:29;19.40;99.90
4759;DHT22;2393;50.560;12.636;2023-06-19T05:47:57;19.40;99.90
4759;DHT22;2393;50.560;12.636;2023-06-19T05:50:26;19.40;99.90
4759;DHT22;2393;50.560;12.636;2023-06-19T05:52:54;19.40;99.90
4759;DHT22;2393;50.560;12.636;2023-06-19T05:55:24;19.40;99.90
4759;DHT22;2393;50.560;12.636;2023-06-19T05:57:55;19.40;99.90
4759;DHT22;2393;50.560;12.636;2023-06-19T06:00:24;19.40;99.90
4759;DHT22;2393;50.560;12.636;2023-06-19T06:02:53;19.40;99.90
4759;DHT22;2393;50.560;12.636;2023-06-19T06:05:21;19.40;99.90
4759;DHT22;2393;50.560;12.636;2023-06-19T06:07:51;19.40;99.90
4759;DHT22;2393;50.560;12.636;2023-06-19T06:10:19;19.40;99.90
4759;DHT22;2393;50.560;12.636;2023-06-19T06:12:51;19.40;99.90
4759;DHT22;2393;50.560;12.636;2023-06-19T06:15:19;19.40;99.90
4759;DHT22;2393;50.560;12.636;2023-06-19T06:17:48;19.40;99.90
4759;DHT22;2393;50.560;12.636;2023-06-19T06:20:17;19.40;99.90
4759;DHT22;2393;50.560;12.636;2023-06-19T06:22:45;19.40;99.90
4759;DHT22;2393;50.560;12.636;2023-06-19T06:25:13;19.40;99.90
4759;DHT22;2393;50.560;12.636;2023-06-19T06:27:41;19.40;99.90
4759;DHT22;2393;50.560;12.636;2023-06-19T06:30:12;19.50;99.90
4759;DHT22;2393;50.560;12.636;2023-06-19T06:32:41;19.50;99.90
4759;DHT22;2393;50.560;12.636;2023-06-19T06:35:09;19.50;99.90
4759;DHT22;2393;50.560;12.636;2023-06-19T06:37:37;19.60;99.90
4759;DHT22;2393;50.560;12.636;2023-06-19T06:40:06;19.60;99.90
4759;DHT22;2393;50.560;12.636;2023-06-19T06:42:38;19.70;99.90
4759;DHT22;2393;50.560;12.636;2023-06-19T06:45:07;19.80;99.90
4759;DHT22;2393;50.560;12.636;2023-06-19T06:47:36;20.00;99.90
4759;DHT22;2393;50.560;12.636;2023-06-19T06:50:05;20.20;99.90
4759;DHT22;2393;50.560;12.636;2023-06-19T06:52:33;20.40;99.90
4759;DHT22;2393;50.560;12.636;2023-06-19T06:55:01;20.60;99.90
4759;DHT22;2393;50.560;12.636;2023-06-19T06:57:29;20.90;99.90
4759;DHT22;2393;50.560;12.636;2023-06-19T06:59:58;21.10;99.90
4759;DHT22;2393;50.560;12.636;2023-06-19T07:02:26;21.30;99.90
4759;DHT22;2393;50.560;12.636;2023-06-19T07:04:56;21.50;99.90
4759;DHT22;2393;50.560;12.636;2023-06-19T07:07:24;21.70;99.90
4759;DHT22;2393;50.560;12.636;2023-06-19T07:09:52;21.90;99.90
4759;DHT22;2393;50.560;12.636;2023-06-19T07:12:20;22.10;99.90
4759;DHT22;2393;50.560;12.636;2023-06-19T07:14:48;22.30;99.90
4759;DHT22;2393;50.560;12.636;2023-06-19T07:17:16;22.40;98.60
4759;DHT22;2393;50.560;12.636;2023-06-19T07:19:47;22.50;99.90
4759;DHT22;2393;50.560;12.636;2023-06-19T07:22:16;22.60;99.90
4759;DHT22;2393;50.560;12.636;2023-06-19T07:24:45;22.70;99.90
4759;DHT22;2393;50.560;12.636;2023-06-19T07:27:13;22.70;99.90
4759;DHT22;2393;50.560;12.636;2023-06-19T07:29:41;22.80;99.90
4759;DHT22;2393;50.560;12.636;2023-06-19T07:32:09;22.90;99.90
4759;DHT22;2393;50.560;12.636;2023-06-19T07:34:37;22.90;99.90
4759;DHT22;2393;50.560;12.636;2023-06-19T07:37:05;23.00;99.90
4759;DHT22;2393;50.560;12.636;2023-06-19T07:39:35;23.10;99.90
4759;DHT22;2393;50.560;12.636;2023-06-19T07:42:03;23.20;99.90
4759;DHT22;2393;50.560;12.636;2023-06-19T07:44:32;23.50;99.90
4759;DHT22;2393;50.560;12.636;2023-06-19T07:47:00;23.70;99.90
4759;DHT22;2393;50.560;12.636;2023-06-19T07:49:28;24.00;99.90
4759;DHT22;2393;50.560;12.636;2023-06-19T07:51:56;24.20;98.80
4759;DHT22;2393;50.560;12.636;2023-06-19T07:54:25;24.50;99.70
4759;DHT22;2393;50.560;12.636;2023-06-19T07:56:55;24.60;97.10
4759;DHT22;2393;50.560;12.636;2023-06-19T07:59:23;24.80;97.70
4759;DHT22;2393;50.560;12.636;2023-06-19T08:01:51;25.00;97.10
4759;DHT22;2393;50.560;12.636;2023-06-19T08:04:19;25.40;97.60
4759;DHT22;2393;50.560;12.636;2023-06-19T08:06:47;25.70;99.50
4759;DHT22;2393;50.560;12.636;2023-06-19T08:09:16;26.00;99.90
4759;DHT22;2393;50.560;12.636;2023-06-19T08:11:44;26.20;99.50
4759;DHT22;2393;50.560;12.636;2023-06-19T08:14:14;26.30;97.10
4759;DHT22;2393;50.560;12.636;2023-06-19T08:16:42;26.50;98.00
4759;DHT22;2393;50.560;12.636;2023-06-19T08:19:10;26.70;97.20
4759;DHT22;2393;50.560;12.636;2023-06-19T08:21:38;26.90;95.90
4759;DHT22;2393;50.560;12.636;2023-06-19T08:24:06;26.90;95.40
4759;DHT22;2393;50.560;12.636;2023-06-19T08:26:34;26.80;96.90
4759;DHT22;2393;50.560;12.636;2023-06-19T08:29:02;26.60;97.20
4759;DHT22;2393;50.560;12.636;2023-06-19T08:31:32;26.50;96.70
4759;DHT22;2393;50.560;12.636;2023-06-19T08:34:00;26.40;94.90
4759;DHT22;2393;50.560;12.636;2023-06-19T08:36:33;26.30;95.50
4759;DHT22;2393;50.560;12.636;2023-06-19T08:39:01;26.10;95.70
4759;DHT22;2393;50.560;12.636;2023-06-19T08:41:29;26.10;96.50
4759;DHT22;2393;50.560;12.636;2023-06-19T08:43:57;26.00;96.50
4759;DHT22;2393;50.560;12.636;2023-06-19T08:46:25;26.00;96.20
4759;DHT22;2393;50.560;12.636;2023-06-19T08:48:56;25.90;97.10
4759;DHT22;2393;50.560;12.636;2023-06-19T08:51:26;25.70;95.80
4759;DHT22;2393;50.560;12.636;2023-06-19T08:53:56;25.60;95.90
4759;DHT22;2393;50.560;12.636;2023-06-19T08:56:24;25.50;95.90
4759;DHT22;2393;50.560;12.636;2023-06-19T08:58:53;25.40;96.70
4759;DHT22;2393;50.560;12.636;2023-06-19T09:01:21;25.30;96.60
4759;DHT22;2393;50.560;12.636;2023-06-19T09:03:50;25.20;96.30
4759;DHT22;2393;50.560;12.636;2023-06-19T09:06:21;25.20;97.20
4759;DHT22;2393;50.560;12.636;2023-06-19T09:08:58;25.10;96.70
4759;DHT22;2393;50.560;12.636;2023-06-19T09:11:27;25.10;97.20
4759;DHT22;2393;50.560;12.636;2023-06-19T09:13:57;25.30;97.10
4759;DHT22;2393;50.560;12.636;2023-06-19T09:16:36;25.60;98.80
4759;DHT22;2393;50.560;12.636;2023-06-19T09:19:04;26.10;97.60
4759;DHT22;2393;50.560;12.636;2023-06-19T09:21:36;26.60;97.50
4759;DHT22;2393;50.560;12.636;2023-06-19T09:24:06;27.00;98.40
4759;DHT22;2393;50.560;12.636;2023-06-19T09:26:36;27.40;96.10
4759;DHT22;2393;50.560;12.636;2023-06-19T09:29:13;27.90;96.70
4759;DHT22;2393;50.560;12.636;2023-06-19T09:31:46;28.10;95.60
4759;DHT22;2393;50.560;12.636;2023-06-19T09:34:15;28.20;96.20
4759;DHT22;2393;50.560;12.636;2023-06-19T09:36:46;28.20;94.40
4759;DHT22;2393;50.560;12.636;2023-06-19T09:39:15;28.20;94.80
4759;DHT22;2393;50.560;12.636;2023-06-19T09:41:46;28.10;94.60
4759;DHT22;2393;50.560;12.636;2023-06-19T09:44:19;28.20;94.30
4759;DHT22;2393;50.560;12.636;2023-06-19T09:46:50;28.20;94.00
4759;DHT22;2393;50.560;12.636;2023-06-19T09:49:21;28.20;94.10
4759;DHT22;2393;50.560;12.636;2023-06-19T09:51:52;28.20;94.20
4759;DHT22;2393;50.560;12.636;2023-06-19T09:54:20;28.30;95.10
4759;DHT22;2393;50.560;12.636;2023-06-19T09:56:50;28.40;94.20
4759;DHT22;2393;50.560;12.636;2023-06-19T09:59:19;28.30;95.30
4759;DHT22;2393;50.560;12.636;2023-06-19T10:01:48;28.40;94.00
4759;DHT22;2393;50.560;12.636;2023-06-19T10:04:17;28.40;95.10
4759;DHT22;2393;50.560;12.636;2023-06-19T10:06:46;28.30;93.90
4759;DHT22;2393;50.560;12.636;2023-06-19T10:09:17;28.20;93.70
4759;DHT22;2393;50.560;12.636;2023-06-19T10:11:47;28.10;94.30
4759;DHT22;2393;50.560;12.636;2023-06-19T10:14:15;28.10;94.10
4759;DHT22;2393;50.560;12.636;2023-06-19T10:16:45;28.30;97.00
4759;DHT22;2393;50.560;12.636;2023-06-19T10:19:14;28.50;95.40
4759;DHT22;2393;50.560;12.636;2023-06-19T10:21:45;28.50;95.20
4759;DHT22;2393;50.560;12.636;2023-06-19T10:24:15;28.60;93.60
4759;DHT22;2393;50.560;12.636;2023-06-19T10:26:58;28.70;94.10
4759;DHT22;2393;50.560;12.636;2023-06-19T10:29:37;28.80;93.80
4759;DHT22;2393;50.560;12.636;2023-06-19T10:32:07;29.00;94.90
4759;DHT22;2393;50.560;12.636;2023-06-19T10:34:35;28.90;93.30
4759;DHT22;2393;50.560;12.636;2023-06-19T10:37:04;28.80;93.40
4759;DHT22;2393;50.560;12.636;2023-06-19T10:39:33;28.80;94.30
4759;DHT22;2393;50.560;12.636;2023-06-19T10:42:05;28.60;94.30
4759;DHT22;2393;50.560;12.636;2023-06-19T10:44:34;28.50;94.00
4759;DHT22;2393;50.560;12.636;2023-06-19T10:47:04;28.60;94.20
4759;DHT22;2393;50.560;12.636;2023-06-19T10:49:34;28.70;94.00
4759;DHT22;2393;50.560;12.636;2023-06-19T10:52:03;28.70;94.70
4759;DHT22;2393;50.560;12.636;2023-06-19T10:54:32;28.90;94.60
4759;DHT22;2393;50.560;12.636;2023-06-19T10:57:05;29.10;93.40
4759;DHT22;2393;50.560;12.636;2023-06-19T10:59:33;29.30;93.70
4759;DHT22;2393;50.560;12.636;2023-06-19T11:02:02;29.40;93.70
4759;DHT22;2393;50.560;12.636;2023-06-19T11:04:31;29.30;93.90
4759;DHT22;2393;50.560;12.636;2023-06-19T11:07:05;29.30;94.60
4759;DHT22;2393;50.560;12.636;2023-06-19T11:09:33;29.30;94.60
4759;DHT22;2393;50.560;12.636;2023-06-19T11:12:01;29.20;94.90
4759;DHT22;2393;50.560;12.636;2023-06-19T11:14:30;29.10;93.80
4759;DHT22;2393;50.560;12.636;2023-06-19T11:16:58;28.90;93.90
4759;DHT22;2393;50.560;12.636;2023-06-19T11:19:30;28.80;94.30
4759;DHT22;2393;50.560;12.636;2023-06-19T11:22:00;28.80;95.30
4759;DHT22;2393;50.560;12.636;2023-06-19T11:24:30;28.80;93.80
4759;DHT22;2393;50.560;12.636;2023-06-19T11:26:58;28.80;94.10
4759;DHT22;2393;50.560;12.636;2023-06-19T11:29:29;28.90;95.10
4759;DHT22;2393;50.560;12.636;2023-06-19T11:32:06;28.80;95.30
4759;DHT22;2393;50.560;12.636;2023-06-19T11:34:38;28.40;94.40
4759;DHT22;2393;50.560;12.636;2023-06-19T11:37:12;28.30;94.70
4759;DHT22;2393;50.560;12.636;2023-06-19T11:39:43;28.30;94.60
4759;DHT22;2393;50.560;12.636;2023-06-19T11:42:12;28.30;94.00
4759;DHT22;2393;50.560;12.636;2023-06-19T11:44:59;28.30;93.10
4759;DHT22;2393;50.560;12.636;2023-06-19T11:47:30;28.20;93.80
4759;DHT22;2393;50.560;12.636;2023-06-19T11:49:58;28.10;93.30
4759;DHT22;2393;50.560;12.636;2023-06-19T11:52:28;28.00;93.40
4759;DHT22;2393;50.560;12.636;2023-06-19T11:54:57;28.00;95.40
4759;DHT22;2393;50.560;12.636;2023-06-19T11:57:26;27.90;94.60
4759;DHT22;2393;50.560;12.636;2023-06-19T11:59:55;27.80;95.30
4759;DHT22;2393;50.560;12.636;2023-06-19T12:02:24;27.60;94.80
4759;DHT22;2393;50.560;12.636;2023-06-19T12:04:53;27.50;95.20
4759;DHT22;2393;50.560;12.636;2023-06-19T12:07:21;27.30;95.20
4759;DHT22;2393;50.560;12.636;2023-06-19T12:09:49;27.20;94.50
4759;DHT22;2393;50.560;12.636;2023-06-19T12:12:17;27.10;94.90
4759;DHT22;2393;50.560;12.636;2023-06-19T12:14:45;27.00;95.50
4759;DHT22;2393;50.560;12.636;2023-06-19T12:17:13;27.00;95.00
4759;DHT22;2393;50.560;12.636;2023-06-19T12:19:43;27.00;95.20
4759;DHT22;2393;50.560;12.636;2023-06-19T12:22:11;27.00;94.90
4759;DHT22;2393;50.560;12.636;2023-06-19T12:24:39;27.10;95.10
4759;DHT22;2393;50.560;12.636;2023-06-19T12:27:07;27.20;95.10
4759;DHT22;2393;50.560;12.636;2023-06-19T12:29:35;27.40;95.80
4759;DHT22;2393;50.560;12.636;2023-06-19T12:32:04;27.70;95.40
4759;DHT22;2393;50.560;12.636;2023-06-19T12:34:33;28.10;96.60
4759;DHT22;2393;50.560;12.636;2023-06-19T12:37:02;28.50;95.30
4759;DHT22;2393;50.560;12.636;2023-06-19T12:39:30;28.80;93.70
4759;DHT22;2393;50.560;12.636;2023-06-19T12:41:59;28.90;94.40
4759;DHT22;2393;50.560;12.636;2023-06-19T12:44:27;29.10;93.00
4759;DHT22;2393;50.560;12.636;2023-06-19T12:46:55;29.20;92.60
4759;DHT22;2393;50.560;12.636;2023-06-19T12:49:25;29.20;93.00
4759;DHT22;2393;50.560;12.636;2023-06-19T12:51:53;29.10;93.70
4759;DHT22;2393;50.560;12.636;2023-06-19T12:54:23;29.20;93.50
4759;DHT22;2393;50.560;12.636;2023-06-19T12:56:51;29.40;92.90
4759;DHT22;2393;50.560;12.636;2023-06-19T12:59:19;29.50;92.60
4759;DHT22;2393;50.560;12.636;2023-06-19T13:01:47;29.40;92.00
4759;DHT22;2393;50.560;12.636;2023-06-19T13:04:15;29.30;92.80
4759;DHT22;2393;50.560;12.636;2023-06-19T13:06:44;29.20;93.00
4759;DHT22;2393;50.560;12.636;2023-06-19T13:09:12;29.20;92.50
4759;DHT22;2393;50.560;12.636;2023-06-19T13:11:42;29.20;93.10
4759;DHT22;2393;50.560;12.636;2023-06-19T13:14:10;29.40;93.00
4759;DHT22;2393;50.560;12.636;2023-06-19T13:16:38;29.60;92.80
4759;DHT22;2393;50.560;12.636;2023-06-19T13:19:13;29.80;91.90
4759;DHT22;2393;50.560;12.636;2023-06-19T13:21:41;30.10;91.80
4759;DHT22;2393;50.560;12.636;2023-06-19T13:24:10;30.20;92.20
4759;DHT22;2393;50.560;12.636;2023-06-19T13:26:38;30.20;93.10
4759;DHT22;2393;50.560;12.636;2023-06-19T13:29:07;30.30;91.50
4759;DHT22;2393;50.560;12.636;2023-06-19T13:31:35;30.40;91.90
4759;DHT22;2393;50.560;12.636;2023-06-19T13:34:04;30.40;93.50
4759;DHT22;2393;50.560;12.636;2023-06-19T13:36:32;30.60;91.40
4759;DHT22;2393;50.560;12.636;2023-06-19T13:39:00;30.70;92.90
4759;DHT22;2393;50.560;12.636;2023-06-19T13:41:29;30.80;92.80
4759;DHT22;2393;50.560;12.636;2023-06-19T13:43:59;30.90;92.50
4759;DHT22;2393;50.560;12.636;2023-06-19T13:46:29;31.00;91.60
4759;DHT22;2393;50.560;12.636;2023-06-19T13:48:59;31.30;92.10
4759;DHT22;2393;50.560;12.636;2023-06-19T13:51:27;31.50;91.60
4759;DHT22;2393;50.560;12.636;2023-06-19T13:53:55;31.50;90.70
4759;DHT22;2393;50.560;12.636;2023-06-19T13:56:24;31.60;92.20
4759;DHT22;2393;50.560;12.636;2023-06-19T13:58:52;31.60;91.90
4759;DHT22;2393;50.560;12.636;2023-06-19T14:01:20;31.40;92.20
4759;DHT22;2393;50.560;12.636;2023-06-19T14:03:49;31.50;92.10
4759;DHT22;2393;50.560;12.636;2023-06-19T14:06:17;31.60;91.80
4759;DHT22;2393;50.560;12.636;2023-06-19T14:08:45;31.80;90.30
4759;DHT22;2393;50.560;12.636;2023-06-19T14:11:13;31.70;90.00
4759;DHT22;2393;50.560;12.636;2023-06-19T14:13:42;31.80;89.30
4759;DHT22;2393;50.560;12.636;2023-06-19T14:16:10;31.80;89.30
4759;DHT22;2393;50.560;12.636;2023-06-19T14:18:38;31.60;88.20
4759;DHT22;2393;50.560;12.636;2023-06-19T14:21:07;31.50;90.50
4759;DHT22;2393;50.560;12.636;2023-06-19T14:23:35;31.60;89.80
4759;DHT22;2393;50.560;12.636;2023-06-19T14:26:10;31.60;90.70
4759;DHT22;2393;50.560;12.636;2023-06-19T14:28:38;31.60;90.00
4759;DHT22;2393;50.560;12.636;2023-06-19T14:31:07;31.60;89.20
4759;DHT22;2393;50.560;12.636;2023-06-19T14:33:35;31.50;90.80
4759;DHT22;2393;50.560;12.636;2023-06-19T14:36:05;31.60;90.20
4759;DHT22;2393;50.560;12.636;2023-06-19T14:38:34;31.50;90.00
4759;DHT22;2393;50.560;12.636;2023-06-19T14:41:02;31.50;89.90
4759;DHT22;2393;50.560;12.636;2023-06-19T14:43:30;31.50;90.40
4759;DHT22;2393;50.560;12.636;2023-06-19T14:46:00;31.50;89.40
4759;DHT22;2393;50.560;12.636;2023-06-19T14:48:30;31.50;90.50
4759;DHT22;2393;50.560;12.636;2023-06-19T14:50:58;31.40;90.00
4759;DHT22;2393;50.560;12.636;2023-06-19T14:53:26;31.50;90.70
4759;DHT22;2393;50.560;12.636;2023-06-19T14:55:56;31.60;90.30
4759;DHT22;2393;50.560;12.636;2023-06-19T14:58:24;31.60;90.60
4759;DHT22;2393;50.560;12.636;2023-06-19T15:00:55;31.60;89.80
4759;DHT22;2393;50.560;12.636;2023-06-19T15:03:24;31.50;90.60
4759;DHT22;2393;50.560;12.636;2023-06-19T15:05:53;31.50;90.20
4759;DHT22;2393;50.560;12.636;2023-06-19T15:08:21;31.40;90.40
4759;DHT22;2393;50.560;12.636;2023-06-19T15:10:51;31.30;90.80
4759;DHT22;2393;50.560;12.636;2023-06-19T15:13:20;31.30;90.10
4759;DHT22;2393;50.560;12.636;2023-06-19T15:15:48;31.30;90.50
4759;DHT22;2393;50.560;12.636;2023-06-19T15:18:17;31.20;90.70
4759;DHT22;2393;50.560;12.636;2023-06-19T15:20:46;31.20;90.60
4759;DHT22;2393;50.560;12.636;2023-06-19T15:23:14;30.90;90.30
4759;DHT22;2393;50.560;12.636;2023-06-19T15:25:42;30.80;90.80
4759;DHT22;2393;50.560;12.636;2023-06-19T15:28:10;30.80;91.10
4759;DHT22;2393;50.560;12.636;2023-06-19T15:30:39;30.80;91.80
4759;DHT22;2393;50.560;12.636;2023-06-19T15:33:07;30.80;92.00
4759;DHT22;2393;50.560;12.636;2023-06-19T15:35:35;30.90;92.90
4759;DHT22;2393;50.560;12.636;2023-06-19T15:38:03;31.10;91.90
4759;DHT22;2393;50.560;12.636;2023-06-19T15:40:31;31.20;90.50
4759;DHT22;2393;50.560;12.636;2023-06-19T15:42:59;31.20;89.50
4759;DHT22;2393;50.560;12.636;2023-06-19T15:45:28;31.10;90.70
4759;DHT22;2393;50.560;12.636;2023-06-19T15:47:57;31.00;89.30
4759;DHT22;2393;50.560;12.636;2023-06-19T15:50:25;30.70;89.30
4759;DHT22;2393;50.560;12.636;2023-06-19T15:52:54;30.40;89.20
4759;DHT22;2393;50.560;12.636;2023-06-19T15:55:22;30.20;90.30
4759;DHT22;2393;50.560;12.636;2023-06-19T15:57:51;30.00;90.60